Time;durP1;ratioP1;P1;durP2;ratioP2;P2;SDS_P1;SDS_P2;PMS_P1;PMS_P2;Temp;Humidity;BMP_temperature;BMP_pressure;BME280_temperature;BME280_humidity;BME280_pressure;Samples;Min_cycle;Max_cycle;Signal;HPM_P1;HPM_P2
2021/10/19 00:01:10;;;;;;;1.00;0.60;;;;;;;7.11;60.99;99193.38;3350909;29;20071;-70
2021/10/19 00:02:51;;;;;;;0.82;0.50;;;;;;;7.13;60.76;99188.72;3351556;29;20100;-70
2021/10/19 00:04:32;;;;;;;1.95;0.68;;;;;;;7.12;60.84;99195.00;3350794;29;20113;-72
2021/10/19 00:06:15;;;;;;;2.45;0.68;;;;;;;7.09;60.98;99196.19;3350162;29;20458;-70
2021/10/19 00:07:56;;;;;;;2.10;0.77;;;;;;;7.08;60.76;99194.56;3361182;29;20464;-71
2021/10/19 00:09:37;;;;;;;2.97;0.73;;;;;;;7.11;60.63;99194.19;3362133;29;20057;-72
2021/10/19 00:11:18;;;;;;;0.80;0.68;;;;;;;7.10;60.68;99197.84;3363502;29;20052;-71
2021/10/19 00:12:59;;;;;;;3.72;1.02;;;;;;;7.07;60.96;99190.25;3363585;29;20045;-72
2021/10/19 00:14:40;;;;;;;2.05;0.55;;;;;;;7.10;61.26;99192.56;3361830;29;20056;-69
2021/10/19 00:16:20;;;;;;;0.70;0.60;;;;;;;7.09;61.07;99192.72;3363364;29;20473;-70
2021/10/19 00:18:02;;;;;;;1.25;0.85;;;;;;;7.11;61.10;99188.88;3362597;29;20037;-70
2021/10/19 00:19:43;;;;;;;1.27;0.80;;;;;;;7.12;61.02;99197.66;3360993;29;20052;-70
2021/10/19 00:21:26;;;;;;;0.90;0.60;;;;;;;7.10;61.12;99187.25;3362495;29;20048;-74
2021/10/19 00:23:10;;;;;;;1.90;0.57;;;;;;;7.18;61.00;99194.28;3362213;29;20104;-71
2021/10/19 00:24:51;;;;;;;2.25;0.60;;;;;;;7.13;61.03;99201.97;3360554;29;20136;-71
2021/10/19 00:26:31;;;;;;;2.15;0.70;;;;;;;7.11;60.95;99198.66;3361893;29;20409;-68
2021/10/19 00:28:12;;;;;;;0.68;0.60;;;;;;;7.05;61.02;99188.78;3360980;29;20037;-70
2021/10/19 00:29:53;;;;;;;0.50;0.50;;;;;;;7.13;61.04;99201.97;3362131;29;20049;-68
2021/10/19 00:31:33;;;;;;;2.40;0.60;;;;;;;7.13;61.02;99196.66;3362565;29;20386;-70
2021/10/19 00:33:14;;;;;;;1.20;0.80;;;;;;;7.14;61.06;99193.00;3362705;29;20040;-68
2021/10/19 00:34:55;;;;;;;2.50;1.20;;;;;;;7.16;61.10;99196.28;3362535;29;20045;-69
2021/10/19 00:36:35;;;;;;;2.83;0.68;;;;;;;7.15;60.88;99206.06;3362083;29;20132;-68
2021/10/19 00:38:16;;;;;;;0.88;0.63;;;;;;;7.09;60.96;99190.88;3362248;29;20441;-70
2021/10/19 00:39:57;;;;;;;0.80;0.70;;;;;;;7.17;60.93;99197.91;3362301;29;20049;-71
2021/10/19 00:41:37;;;;;;;1.38;0.60;;;;;;;7.19;61.02;99201.22;3362811;29;20059;-70
2021/10/19 00:43:18;;;;;;;0.57;0.57;;;;;;;7.24;60.94;99201.47;3362577;29;20037;-70
2021/10/19 00:44:59;;;;;;;1.17;0.73;;;;;;;7.31;60.85;99204.22;3362446;29;20454;-72
2021/10/19 00:46:41;;;;;;;0.60;0.55;;;;;;;7.36;60.49;99210.59;3361950;29;20417;-72
2021/10/19 00:48:26;;;;;;;1.08;1.00;;;;;;;7.37;60.71;99209.59;3362140;29;20124;-71
2021/10/19 00:50:07;;;;;;;1.23;0.50;;;;;;;7.31;60.72;99205.03;3362262;29;20045;-71
2021/10/19 00:51:47;;;;;;;0.63;0.63;;;;;;;7.27;61.06;99203.75;3362604;29;20132;-70
2021/10/19 00:53:28;;;;;;;1.17;0.88;;;;;;;7.25;61.03;99205.75;3361349;29;20045;-71
2021/10/19 00:55:09;;;;;;;1.08;0.80;;;;;;;7.26;60.96;99202.13;3362305;29;20049;-69
2021/10/19 00:56:52;;;;;;;0.90;0.60;;;;;;;7.24;61.15;99204.13;3361921;29;20135;-70
2021/10/19 00:58:35;;;;;;;0.98;0.60;;;;;;;7.24;61.24;99206.78;3364493;29;20045;-73
2021/10/19 01:00:16;;;;;;;0.70;0.60;;;;;;;7.18;61.11;99215.47;3364220;29;20091;-70
2021/10/19 01:01:56;;;;;;;0.93;0.60;;;;;;;7.17;61.37;99209.34;3365209;29;20041;-71
2021/10/19 01:03:37;;;;;;;1.00;0.50;;;;;;;7.20;61.50;99208.16;3364928;29;20073;-68
2021/10/19 01:05:19;;;;;;;1.38;0.68;;;;;;;7.14;61.53;99207.06;3364432;29;20056;-70
2021/10/19 01:07:03;;;;;;;1.00;0.50;;;;;;;7.16;61.74;99213.00;3364939;29;20041;-71
2021/10/19 01:08:44;;;;;;;0.88;0.50;;;;;;;7.20;61.89;99216.94;3363938;29;20539;-70
2021/10/19 01:10:25;;;;;;;1.10;0.50;;;;;;;7.21;61.55;99221.22;3364470;29;20124;-72
2021/10/19 01:12:07;;;;;;;1.38;0.60;;;;;;;7.21;61.57;99215.09;3364804;29;20112;-69
2021/10/19 01:13:48;;;;;;;0.55;0.55;;;;;;;7.22;61.60;99216.72;3365097;29;20074;-70
2021/10/19 01:15:32;;;;;;;1.38;0.93;;;;;;;7.22;61.66;99219.38;3364771;29;20059;-71
2021/10/19 01:17:13;;;;;;;0.85;0.73;;;;;;;7.28;61.43;99221.31;3364282;29;20045;-69
2021/10/19 01:18:54;;;;;;;0.70;0.70;;;;;;;7.32;61.33;99221.75;3363714;29;20124;-70
2021/10/19 01:20:35;;;;;;;1.45;1.35;;;;;;;7.29;61.37;99216.84;3360855;29;20548;-71
2021/10/19 01:22:16;;;;;;;1.38;0.95;;;;;;;7.28;61.40;99226.63;3364666;29;20048;-70
2021/10/19 01:23:57;;;;;;;0.80;0.40;;;;;;;7.30;61.52;99224.59;3364916;29;20592;-70
2021/10/19 01:25:37;;;;;;;0.93;0.70;;;;;;;7.31;61.30;99230.72;3364701;29;20049;-71
2021/10/19 01:27:18;;;;;;;0.60;0.60;;;;;;;7.31;61.39;99220.94;3364126;29;20040;-68
2021/10/19 01:28:59;;;;;;;1.48;0.68;;;;;;;7.29;61.45;99222.94;3364180;29;20064;-67
2021/10/19 01:30:44;;;;;;;1.13;0.70;;;;;;;7.25;61.74;99223.50;3364423;29;20040;-69
2021/10/19 01:32:24;;;;;;;0.55;0.55;;;;;;;7.27;61.69;99230.25;3364805;29;20043;-70
2021/10/19 01:34:05;;;;;;;0.60;0.60;;;;;;;7.26;61.65;99223.31;3364514;29;20056;-69
2021/10/19 01:35:46;;;;;;;1.40;0.70;;;;;;;7.27;61.46;99230.25;3364748;29;20049;-68
2021/10/19 01:37:27;;;;;;;1.40;0.80;;;;;;;7.26;61.89;99239.22;3364000;29;20401;-68
2021/10/19 01:39:08;;;;;;;0.50;0.50;;;;;;;7.20;61.48;99234.66;3364328;29;20270;-70
2021/10/19 01:40:50;;;;;;;0.50;0.50;;;;;;;7.17;61.60;99235.03;3364370;29;20048;-70
2021/10/19 01:42:34;;;;;;;1.08;0.75;;;;;;;7.20;61.78;99235.50;3364828;29;20040;-71
2021/10/19 01:44:15;;;;;;;0.60;0.60;;;;;;;7.21;61.85;99241.59;3363911;29;20523;-70
2021/10/19 01:46:01;;;;;;;1.05;0.70;;;;;;;7.24;62.13;99230.63;3364632;29;20055;-70
2021/10/19 01:47:42;;;;;;;0.65;0.60;;;;;;;7.26;61.91;99244.53;3363994;29;20041;-68
2021/10/19 01:49:23;;;;;;;1.25;0.73;;;;;;;7.23;61.72;99236.94;3363230;29;20100;-71
2021/10/19 01:51:03;;;;;;;1.33;0.70;;;;;;;7.14;61.75;99236.22;3364187;29;20060;-68
2021/10/19 01:52:45;;;;;;;0.50;0.50;;;;;;;7.22;61.90;99248.53;3364631;29;20041;-70
2021/10/19 01:54:26;;;;;;;0.80;0.60;;;;;;;7.23;61.69;99250.19;3364870;29;20041;-70
2021/10/19 01:56:06;;;;;;;3.78;1.27;;;;;;;7.25;61.62;99248.16;3364475;29;20063;-68
2021/10/19 01:57:47;;;;;;;0.95;0.82;;;;;;;7.28;61.67;99257.56;3363657;29;20041;-69
2021/10/19 01:59:28;;;;;;;1.25;0.90;;;;;;;7.28;61.63;99253.13;3365056;29;20045;-70
2021/10/19 02:01:08;;;;;;;0.60;0.60;;;;;;;7.33;61.75;99253.41;3365492;29;20048;-71
2021/10/19 02:02:49;;;;;;;0.57;0.50;;;;;;;7.39;61.43;99251.84;3363707;29;20551;-68
2021/10/19 02:04:30;;;;;;;3.08;0.80;;;;;;;7.43;61.57;99253.94;3364007;29;20490;-68
2021/10/19 02:06:10;;;;;;;1.08;0.50;;;;;;;7.42;61.69;99254.91;3364111;29;20509;-70
2021/10/19 02:07:51;;;;;;;5.43;0.85;;;;;;;7.40;61.82;99261.41;3363753;29;20051;-69
2021/10/19 02:09:31;;;;;;;1.73;0.77;;;;;;;7.35;61.95;99255.84;3362741;29;20061;-68
2021/10/19 02:11:12;;;;;;;1.95;0.60;;;;;;;7.33;62.14;99255.19;3364290;29;20048;-67
2021/10/19 02:12:53;;;;;;;2.00;0.63;;;;;;;7.30;62.20;99264.34;3364164;29;20425;-67
2021/10/19 02:14:33;;;;;;;0.95;0.85;;;;;;;7.34;62.26;99252.38;3364183;29;20048;-69
2021/10/19 02:16:14;;;;;;;0.90;0.70;;;;;;;7.40;62.18;99256.13;3364216;29;20040;-68
2021/10/19 02:17:55;;;;;;;0.70;0.70;;;;;;;7.37;62.16;99262.59;3364045;29;20075;-67
2021/10/19 02:19:36;;;;;;;0.93;0.82;;;;;;;7.34;62.23;99252.38;3362103;29;20089;-69
2021/10/19 02:21:17;;;;;;;0.70;0.70;;;;;;;7.38;62.18;99256.31;3363917;29;20131;-69
2021/10/19 02:22:58;;;;;;;6.50;0.90;;;;;;;7.45;62.01;99272.28;3363081;29;20048;-71
2021/10/19 02:24:39;;;;;;;1.10;0.77;;;;;;;7.50;61.87;99255.84;3363775;29;20075;-69
2021/10/19 02:26:20;;;;;;;1.80;0.85;;;;;;;7.57;61.64;99264.69;3364109;29;20041;-68
2021/10/19 02:28:00;;;;;;;2.25;0.60;;;;;;;7.61;61.52;99268.59;3364201;29;20049;-68
2021/10/19 02:29:41;;;;;;;1.75;0.70;;;;;;;7.60;61.53;99273.09;3356374;29;20059;-70
2021/10/19 02:31:22;;;;;;;2.97;0.68;;;;;;;7.60;61.24;99266.97;3351237;29;20041;-68
2021/10/19 02:33:02;;;;;;;4.60;0.90;;;;;;;7.63;61.46;99277.22;3351306;29;20178;-69
2021/10/19 02:34:44;;;;;;;1.63;0.85;;;;;;;7.65;61.29;99273.38;3350898;29;20050;-69
2021/10/19 02:36:25;;;;;;;0.70;0.65;;;;;;;7.69;60.98;99271.16;3351116;29;20471;-69
2021/10/19 02:38:05;;;;;;;0.80;0.60;;;;;;;7.71;60.86;99279.75;3351347;29;20057;-69
2021/10/19 02:39:46;;;;;;;0.80;0.70;;;;;;;7.72;60.50;99270.81;3359249;29;20052;-69
2021/10/19 02:41:27;;;;;;;1.13;0.75;;;;;;;7.74;60.25;99279.38;3363975;29;20075;-69
2021/10/19 02:43:07;;;;;;;4.05;0.98;;;;;;;7.76;60.03;99279.19;3363973;29;20044;-68
2021/10/19 02:44:48;;;;;;;0.50;0.47;;;;;;;7.74;59.72;99279.38;3363893;29;20071;-70
2021/10/19 02:46:31;;;;;;;0.52;0.50;;;;;;;7.73;59.90;99282.22;3388328;29;20040;-68
2021/10/19 02:48:12;;;;;;;2.47;0.85;;;;;;;7.66;59.88;99263.56;3368096;29;20136;-68
2021/10/19 02:49:52;;;;;;;0.88;0.80;;;;;;;7.71;60.01;99278.94;3361856;29;20049;-68
2021/10/19 02:51:33;;;;;;;0.80;0.80;;;;;;;7.74;60.12;99274.06;3363582;29;20469;-71
2021/10/19 02:53:13;;;;;;;0.73;0.73;;;;;;;7.75;60.04;99281.03;3363806;29;20040;-69
2021/10/19 02:54:54;;;;;;;3.13;1.42;;;;;;;7.76;60.06;99282.66;3363965;29;20131;-71
2021/10/19 02:56:35;;;;;;;0.88;0.70;;;;;;;7.69;60.11;99279.09;3362711;29;20138;-70
2021/10/19 02:58:15;;;;;;;1.05;0.57;;;;;;;7.78;59.87;99285.97;3363365;29;20048;-70
2021/10/19 02:59:57;;;;;;;1.63;0.68;;;;;;;7.77;59.81;99280.81;3363353;29;20509;-69
2021/10/19 03:01:37;;;;;;;0.57;0.47;;;;;;;7.78;59.51;99290.44;3363718;29;20599;-69
2021/10/19 03:03:18;;;;;;;0.50;0.50;;;;;;;7.78;59.47;99295.75;3363732;29;20049;-70
2021/10/19 03:04:58;;;;;;;0.50;0.50;;;;;;;7.78;59.16;99299.22;3362763;29;20529;-69
2021/10/19 03:06:39;;;;;;;0.65;0.57;;;;;;;7.78;58.82;99296.56;3363063;29;20104;-68
2021/10/19 03:08:20;;;;;;;1.20;0.80;;;;;;;7.79;58.82;99298.19;3363699;29;20544;-69
2021/10/19 03:10:00;;;;;;;0.60;0.40;;;;;;;7.77;58.77;99300.25;3362498;29;20053;-70
2021/10/19 03:11:41;;;;;;;1.05;0.50;;;;;;;7.80;58.67;99301.69;3375366;29;20068;-68
2021/10/19 03:13:22;;;;;;;0.50;0.50;;;;;;;7.78;58.17;99299.22;3365954;29;20112;-69
2021/10/19 03:15:03;;;;;;;0.60;0.60;;;;;;;7.76;58.06;99293.28;3363438;29;20092;-69
2021/10/19 03:16:44;;;;;;;1.08;0.55;;;;;;;7.78;58.26;99296.56;3363014;29;20037;-69
2021/10/19 03:18:25;;;;;;;0.52;0.52;;;;;;;7.80;57.97;99305.16;3363596;29;20041;-69
2021/10/19 03:20:06;;;;;;;0.63;0.45;;;;;;;7.84;57.82;99305.59;3362932;29;20064;-69
2021/10/19 03:21:47;;;;;;;0.52;0.52;;;;;;;7.88;57.59;99304.25;3363525;29;20045;-70
2021/10/19 03:23:28;;;;;;;0.50;0.50;;;;;;;7.92;57.17;99307.34;3363424;29;20045;-69
2021/10/19 03:25:09;;;;;;;3.33;0.50;;;;;;;7.92;56.87;99307.34;3363114;29;20417;-68
2021/10/19 03:26:49;;;;;;;0.47;0.47;;;;;;;7.93;56.69;99306.34;3361850;29;20669;-70
2021/10/19 03:28:30;;;;;;;2.17;0.77;;;;;;;7.92;56.51;99315.28;3353067;29;20484;-68
2021/10/19 03:30:11;;;;;;;0.50;0.50;;;;;;;7.91;56.48;99308.34;3355430;29;20472;-69
2021/10/19 03:31:52;;;;;;;1.92;0.52;;;;;;;7.88;56.46;99306.06;3363413;29;20045;-69
2021/10/19 03:33:32;;;;;;;0.50;0.50;;;;;;;7.88;56.37;99312.19;3363375;29;20092;-70
2021/10/19 03:35:13;;;;;;;0.98;0.60;;;;;;;7.90;56.16;99312.84;3363315;29;20069;-69
2021/10/19 03:36:54;;;;;;;1.08;0.50;;;;;;;7.90;56.13;99309.34;3363117;29;20041;-69
2021/10/19 03:38:36;;;;;;;0.50;0.50;;;;;;;7.90;55.92;99314.66;3363104;29;20487;-71
2021/10/19 03:40:16;;;;;;;1.35;0.73;;;;;;;7.91;55.74;99311.00;3362704;29;20040;-69
2021/10/19 03:41:57;;;;;;;0.70;0.65;;;;;;;7.84;55.63;99308.25;3363291;29;20044;-69
2021/10/19 03:43:38;;;;;;;1.70;0.88;;;;;;;7.87;55.82;99315.84;3363463;29;20041;-73
2021/10/19 03:45:19;;;;;;;0.70;0.70;;;;;;;7.89;55.85;99315.66;3363271;29;20128;-79
2021/10/19 03:46:59;;;;;;;10.10;0.80;;;;;;;7.88;56.01;99306.06;3389935;29;20044;-80
2021/10/19 03:48:40;;;;;;;1.13;0.63;;;;;;;7.98;56.50;99311.91;3370197;29;20045;-81
2021/10/19 03:50:21;;;;;;;2.30;0.90;;;;;;;8.09;56.84;99308.75;3363297;29;20040;-77
2021/10/19 03:52:02;;;;;;;1.20;0.50;;;;;;;8.20;57.40;99310.91;3384319;29;20044;-80
2021/10/19 03:53:50;;;;;;;1.65;0.90;;;;;;;8.33;57.50;99298.78;3366744;29;20053;-80
2021/10/19 03:55:31;;;;;;;0.70;0.70;;;;;;;8.55;57.23;99310.28;3374280;29;20044;-78
2021/10/19 03:57:11;;;;;;;1.85;0.63;;;;;;;8.58;56.73;99321.31;3364659;29;20037;-80
2021/10/19 03:58:52;;;;;;;1.98;1.27;;;;;;;8.58;56.71;99308.03;3362786;29;20048;-80
2021/10/19 04:00:32;;;;;;;0.73;0.70;;;;;;;8.67;56.66;99322.84;3362476;29;20037;-81
2021/10/19 04:02:13;;;;;;;0.65;0.60;;;;;;;8.72;56.57;99324.91;3363156;29;20424;-80
2021/10/19 04:03:54;;;;;;;1.40;0.73;;;;;;;8.71;56.08;99326.75;3363735;29;20070;-79
2021/10/19 04:05:35;;;;;;;1.38;0.68;;;;;;;8.63;55.94;99318.91;3363545;29;20083;-79
2021/10/19 04:07:16;;;;;;;1.33;0.80;;;;;;;8.64;56.09;99320.53;3363006;29;20144;-80
2021/10/19 04:08:56;;;;;;;0.75;0.75;;;;;;;8.75;56.25;99335.16;3363804;29;20452;-82
2021/10/19 04:10:37;;;;;;;1.00;0.68;;;;;;;8.80;55.88;99329.25;3362796;29;20048;-69
2021/10/19 04:12:18;;;;;;;1.20;1.10;;;;;;;8.77;55.89;99332.31;3363085;29;20366;-71
2021/10/19 04:13:58;;;;;;;1.70;0.80;;;;;;;8.71;55.27;99329.41;3362945;29;20127;-70
2021/10/19 04:15:39;;;;;;;1.13;0.77;;;;;;;8.66;55.27;99331.00;3363121;29;20165;-73
2021/10/19 04:17:20;;;;;;;0.82;0.60;;;;;;;8.59;55.33;99325.63;3387450;29;20101;-72
2021/10/19 04:19:01;;;;;;;1.23;0.75;;;;;;;8.53;55.41;99326.38;3367478;29;20044;-71
2021/10/19 04:20:42;;;;;;;0.70;0.70;;;;;;;8.44;55.17;99331.00;3362827;29;20509;-71
2021/10/19 04:22:23;;;;;;;0.70;0.70;;;;;;;8.32;55.43;99335.13;3362479;29;20051;-71
2021/10/19 04:24:04;;;;;;;2.78;0.80;;;;;;;8.21;55.66;99323.19;3363018;29;20052;-73
2021/10/19 04:25:44;;;;;;;2.08;0.75;;;;;;;8.18;55.62;99336.81;3362317;29;20088;-70
2021/10/19 04:27:25;;;;;;;0.70;0.70;;;;;;;8.15;55.48;99333.72;3362919;29;20037;-70
2021/10/19 04:29:06;;;;;;;1.48;0.80;;;;;;;8.11;55.30;99335.94;3363137;29;20044;-70
2021/10/19 04:30:47;;;;;;;2.05;0.80;;;;;;;8.05;55.46;99348.13;3363040;29;20140;-71
2021/10/19 04:32:28;;;;;;;1.02;0.88;;;;;;;8.04;55.30;99348.31;3361827;29;20041;-72
2021/10/19 04:34:09;;;;;;;1.05;0.70;;;;;;;8.01;55.52;99348.69;3362453;29;20084;-70
2021/10/19 04:35:50;;;;;;;2.28;0.88;;;;;;;7.97;55.66;99344.75;3362775;29;20055;-71
2021/10/19 04:37:30;;;;;;;0.77;0.68;;;;;;;7.94;55.80;99342.47;3362443;29;20045;-69
2021/10/19 04:39:11;;;;;;;1.83;0.80;;;;;;;7.94;55.69;99347.78;3362937;29;20072;-71
2021/10/19 04:40:52;;;;;;;1.88;0.75;;;;;;;7.96;55.86;99351.88;3362603;29;20049;-71
2021/10/19 04:42:33;;;;;;;1.67;0.80;;;;;;;7.99;55.81;99356.81;3362223;29;20172;-70
2021/10/19 04:44:14;;;;;;;0.68;0.60;;;;;;;8.01;56.11;99351.34;3363194;29;20081;-70
2021/10/19 04:45:57;;;;;;;1.48;1.00;;;;;;;7.97;56.02;99352.72;3362224;29;20103;-70
2021/10/19 04:47:38;;;;;;;1.33;0.80;;;;;;;7.98;56.10;99357.03;3363229;29;20049;-70
2021/10/19 04:49:19;;;;;;;0.80;0.80;;;;;;;7.94;56.08;99353.91;3362322;29;20045;-70
2021/10/19 04:51:00;;;;;;;5.43;0.98;;;;;;;7.93;56.15;99354.91;3362365;29;20074;-70
2021/10/19 04:52:41;;;;;;;0.70;0.70;;;;;;;7.93;56.33;99359.41;3361918;29;20095;-71
2021/10/19 04:54:21;;;;;;;1.38;1.15;;;;;;;7.96;56.24;99361.69;3361862;29;20045;-69
2021/10/19 04:56:03;;;;;;;1.63;1.13;;;;;;;7.94;56.19;99363.69;3362096;29;20047;-69
2021/10/19 04:57:44;;;;;;;1.60;0.80;;;;;;;7.92;56.16;99358.56;3361669;29;20041;-71
2021/10/19 04:59:24;;;;;;;1.17;1.05;;;;;;;7.94;56.08;99364.50;3359009;29;20041;-71
2021/10/19 05:01:05;;;;;;;1.27;1.00;;;;;;;7.98;55.98;99365.81;3361299;29;20041;-72
2021/10/19 05:02:48;;;;;;;3.25;0.73;;;;;;;7.94;55.95;99353.09;3362823;29;20041;-71
2021/10/19 05:04:28;;;;;;;1.55;1.00;;;;;;;8.01;55.98;99364.59;3362007;29;20142;-70
2021/10/19 05:06:09;;;;;;;0.80;0.80;;;;;;;8.02;55.96;99371.53;3362690;29;20634;-70
2021/10/19 05:07:49;;;;;;;0.70;0.70;;;;;;;7.92;55.95;99379.78;3362539;29;20049;-70
2021/10/19 05:09:30;;;;;;;1.70;0.80;;;;;;;7.89;55.95;99374.84;3361097;29;20224;-70
2021/10/19 05:11:11;;;;;;;0.80;0.80;;;;;;;7.81;55.88;99365.16;3362369;29;20048;-71
2021/10/19 05:12:51;;;;;;;0.77;0.68;;;;;;;7.79;56.05;99361.88;3362272;29;20068;-71
2021/10/19 05:14:33;;;;;;;2.15;0.55;;;;;;;7.78;55.73;99373.50;3362470;29;20100;-70
2021/10/19 05:16:13;;;;;;;1.65;0.75;;;;;;;7.79;55.69;99375.13;3362683;29;20051;-69
2021/10/19 05:17:54;;;;;;;0.80;0.80;;;;;;;7.79;55.77;99369.81;3362776;29;20077;-67
2021/10/19 05:19:35;;;;;;;1.15;0.82;;;;;;;7.76;55.86;99383.47;3361618;29;20041;-72
2021/10/19 05:21:15;;;;;;;1.17;1.00;;;;;;;7.73;55.80;99383.84;3362923;29;20537;-72
2021/10/19 05:22:59;;;;;;;2.83;0.90;;;;;;;7.76;55.79;99383.47;3361899;29;20045;-73
2021/10/19 05:24:40;;;;;;;3.33;0.93;;;;;;;7.76;55.88;99383.47;3371703;29;20044;-71
2021/10/19 05:26:20;;;;;;;0.98;0.93;;;;;;;7.71;56.00;99380.53;3351752;29;20406;-72
2021/10/19 05:28:01;;;;;;;0.88;0.88;;;;;;;7.81;55.93;99383.75;3354341;29;20044;-70
2021/10/19 05:29:42;;;;;;;2.50;0.90;;;;;;;7.85;55.84;99390.34;3362032;29;20121;-70
2021/10/19 05:31:22;;;;;;;1.27;0.88;;;;;;;7.91;55.62;99388.78;3361775;29;20104;-72
2021/10/19 05:33:05;;;;;;;0.90;0.90;;;;;;;7.96;55.44;99396.19;3361490;29;20048;-69
2021/10/19 05:34:46;;;;;;;1.02;1.02;;;;;;;7.98;55.51;99395.00;3352002;29;20041;-69
2021/10/19 05:36:26;;;;;;;1.35;0.90;;;;;;;8.02;55.48;99403.41;3361857;29;20144;-68
2021/10/19 05:38:07;;;;;;;0.85;0.82;;;;;;;8.05;55.43;99397.72;3360890;29;20202;-69
2021/10/19 05:39:48;;;;;;;1.35;0.90;;;;;;;7.94;55.65;99398.19;3362063;29;20041;-69
2021/10/19 05:41:28;;;;;;;0.90;0.90;;;;;;;7.88;55.88;99412.22;3362400;29;20044;-72
2021/10/19 05:43:09;;;;;;;1.75;1.10;;;;;;;7.84;55.87;99407.25;3361681;29;20037;-71
2021/10/19 05:44:50;;;;;;;1.02;0.98;;;;;;;7.80;55.95;99416.59;3362528;29;20041;-71
2021/10/19 05:46:31;;;;;;;2.28;1.25;;;;;;;7.75;56.11;99418.97;3359971;29;20044;-72
2021/10/19 05:48:11;;;;;;;2.45;1.10;;;;;;;7.74;56.32;99413.84;3364400;29;20045;-72
2021/10/19 05:49:52;;;;;;;0.93;0.70;;;;;;;7.78;56.12;99415.94;3364667;29;20192;-71
2021/10/19 05:51:33;;;;;;;1.48;0.80;;;;;;;7.74;56.14;99414.66;3364204;29;20505;-70
2021/10/19 05:53:14;;;;;;;0.93;0.93;;;;;;;7.77;56.03;99413.47;3364116;29;20094;-69
2021/10/19 05:54:54;;;;;;;1.80;1.30;;;;;;;7.81;56.45;99418.22;3364659;29;20041;-70
2021/10/19 05:56:35;;;;;;;1.58;0.90;;;;;;;7.83;56.20;99429.50;3364272;29;20632;-69
2021/10/19 05:58:16;;;;;;;0.90;0.90;;;;;;;7.84;56.32;99422.34;3364623;29;20075;-70
2021/10/19 05:59:56;;;;;;;0.70;0.70;;;;;;;7.81;56.26;99426.19;3364235;29;20584;-68
2021/10/19 06:01:37;;;;;;;2.50;1.20;;;;;;;7.78;56.29;99425.75;3363763;29;20032;-69
2021/10/19 06:03:18;;;;;;;2.28;0.88;;;;;;;7.80;56.19;99423.72;3363895;29;20055;-71
2021/10/19 06:04:59;;;;;;;1.15;1.05;;;;;;;7.82;56.21;99422.53;3364013;29;20041;-70
2021/10/19 06:06:39;;;;;;;1.25;1.05;;;;;;;7.84;56.14;99417.84;3363452;29;20045;-70
2021/10/19 06:08:20;;;;;;;1.33;0.98;;;;;;;7.89;56.01;99424.47;3376230;29;20077;-71
2021/10/19 06:10:01;;;;;;;2.08;0.77;;;;;;;7.90;56.10;99428.75;3366458;29;20064;-69
2021/10/19 06:11:41;;;;;;;1.13;1.00;;;;;;;7.86;55.96;99429.13;3364658;29;20132;-69
2021/10/19 06:13:23;;;;;;;0.98;0.80;;;;;;;7.90;55.98;99431.41;3364281;29;20128;-69
2021/10/19 06:15:05;;;;;;;6.95;1.15;;;;;;;7.95;55.76;99434.31;3351360;29;20051;-68
2021/10/19 06:16:46;;;;;;;2.08;1.10;;;;;;;7.96;55.76;99438.63;3357260;29;20150;-69
2021/10/19 06:18:26;;;;;;;1.65;1.38;;;;;;;7.94;55.78;99432.69;3364083;29;20045;-68
2021/10/19 06:20:08;;;;;;;2.63;1.98;;;;;;;7.92;55.81;99429.38;3363710;29;20052;-69
2021/10/19 06:21:49;;;;;;;4.28;1.27;;;;;;;7.98;55.69;99441.94;3363810;29;20049;-69
2021/10/19 06:23:30;;;;;;;2.13;1.23;;;;;;;7.97;55.85;99427.00;3362863;29;20044;-70
2021/10/19 06:25:11;;;;;;;2.65;1.42;;;;;;;8.01;55.59;99438.91;3364123;29;20060;-68
2021/10/19 06:26:52;;;;;;;2.30;1.63;;;;;;;8.06;55.71;99436.53;3363665;29;20130;-69
2021/10/19 06:28:33;;;;;;;3.13;1.40;;;;;;;8.07;55.57;99436.34;3363596;29;20421;-69
2021/10/19 06:30:13;;;;;;;1.55;1.10;;;;;;;8.11;55.51;99436.81;3364681;29;20056;-69
2021/10/19 06:31:55;;;;;;;1.50;1.17;;;;;;;8.11;55.46;99428.84;3363762;29;20075;-71
2021/10/19 06:33:36;;;;;;;3.13;1.48;;;;;;;8.11;55.46;99425.38;3357685;29;20097;-68
2021/10/19 06:35:17;;;;;;;3.50;0.98;;;;;;;8.08;55.63;99434.53;3361380;29;20044;-69
2021/10/19 06:36:57;;;;;;;2.17;0.95;;;;;;;8.07;55.24;99443.47;3363984;29;20045;-68
2021/10/19 06:38:38;;;;;;;2.05;1.15;;;;;;;8.09;55.32;99444.13;3363629;29;20045;-71
2021/10/19 06:40:19;;;;;;;2.63;1.25;;;;;;;8.12;55.50;99435.78;3363034;29;20056;-70
2021/10/19 06:41:59;;;;;;;2.42;0.90;;;;;;;8.14;55.22;99433.78;3363334;29;20496;-70
2021/10/19 06:43:40;;;;;;;5.70;1.27;;;;;;;8.13;55.12;99437.44;3363657;29;20552;-72
2021/10/19 06:45:21;;;;;;;2.45;1.55;;;;;;;8.25;54.91;99441.25;3362889;29;20052;-69
2021/10/19 06:47:02;;;;;;;1.60;1.10;;;;;;;8.33;54.79;99442.97;3356188;29;20521;-68
2021/10/19 06:48:44;;;;;;;5.20;2.00;;;;;;;8.42;54.46;99431.28;3360531;29;20045;-71
2021/10/19 06:50:26;;;;;;;2.70;1.15;;;;;;;8.71;54.18;99446.31;3362276;29;20184;-69
2021/10/19 06:52:07;;;;;;;4.05;1.27;;;;;;;8.92;53.99;99448.16;3356316;29;20049;-73
2021/10/19 06:53:47;;;;;;;3.22;1.00;;;;;;;9.04;53.62;99445.81;3362393;29;20045;-69
2021/10/19 06:55:28;;;;;;;1.85;1.02;;;;;;;9.08;53.31;99446.25;3361953;29;20088;-69
2021/10/19 06:57:11;;;;;;;4.00;1.00;;;;;;;9.05;52.83;99447.44;3361408;29;20049;-70
2021/10/19 06:58:53;;;;;;;1.60;0.90;;;;;;;8.97;52.91;99449.44;3362451;29;20049;-70
2021/10/19 07:00:34;;;;;;;1.95;1.08;;;;;;;8.90;52.94;99454.66;3361642;29;20056;-72
2021/10/19 07:02:15;;;;;;;1.08;0.90;;;;;;;8.87;52.84;99449.72;3361558;29;20052;-70
2021/10/19 07:03:57;;;;;;;1.00;0.95;;;;;;;8.83;52.92;99448.44;3362495;29;20045;-71
2021/10/19 07:05:38;;;;;;;1.02;0.90;;;;;;;8.80;53.12;99446.19;3361655;29;20416;-72
2021/10/19 07:07:19;;;;;;;1.23;1.10;;;;;;;8.78;53.21;99450.84;3347733;29;20033;-71
2021/10/19 07:09:00;;;;;;;1.25;0.82;;;;;;;8.77;53.17;99458.00;3357847;29;20081;-71
2021/10/19 07:10:43;;;;;;;3.28;1.13;;;;;;;8.74;53.02;99453.88;3358116;29;20077;-71
2021/10/19 07:12:24;;;;;;;1.73;1.08;;;;;;;8.70;53.23;99444.66;3362233;29;20462;-73
2021/10/19 07:14:04;;;;;;;1.98;0.95;;;;;;;8.69;53.18;99448.31;3361723;29;20033;-70
2021/10/19 07:15:45;;;;;;;2.60;1.05;;;;;;;8.65;53.06;99449.72;3364035;29;20133;-72
2021/10/19 07:17:27;;;;;;;1.20;0.77;;;;;;;8.59;53.09;99447.81;3360876;29;20041;-71
2021/10/19 07:19:09;;;;;;;1.75;1.10;;;;;;;8.56;53.34;99447.38;3361471;29;20103;-73
2021/10/19 07:20:51;;;;;;;0.93;0.93;;;;;;;8.53;52.79;99453.88;3358155;29;20049;-72
2021/10/19 07:22:37;;;;;;;5.97;1.60;;;;;;;8.58;52.88;99455.97;3362622;29;20047;-73
2021/10/19 07:24:18;;;;;;;1.50;1.13;;;;;;;8.50;53.02;99440.97;3361493;29;20041;-71
2021/10/19 07:25:58;;;;;;;5.05;1.60;;;;;;;8.55;53.13;99446.53;3362439;29;20041;-71
2021/10/19 07:27:39;;;;;;;2.33;1.52;;;;;;;8.59;53.21;99444.31;3363215;29;20128;-71
2021/10/19 07:29:20;;;;;;;2.58;1.20;;;;;;;8.55;53.07;99451.84;3361372;29;20824;-71
2021/10/19 07:31:03;;;;;;;1.85;0.80;;;;;;;8.55;53.24;99445.72;3355507;29;20057;-73
2021/10/19 07:32:45;;;;;;;4.05;1.20;;;;;;;8.51;52.99;99446.06;3349573;29;20679;-72
2021/10/19 07:34:25;;;;;;;0.60;0.60;;;;;;;8.53;53.01;99453.88;3349404;29;20041;-72
2021/10/19 07:36:06;;;;;;;0.90;0.88;;;;;;;8.47;53.15;99446.66;3348707;29;20077;-71
2021/10/19 07:37:47;;;;;;;4.22;1.52;;;;;;;8.46;53.13;99458.28;3351207;29;20051;-70
2021/10/19 07:39:28;;;;;;;3.42;1.05;;;;;;;8.43;53.23;99450.69;3355287;29;20473;-73
2021/10/19 07:41:09;;;;;;;4.13;0.88;;;;;;;8.43;53.00;99448.03;3360740;29;20106;-69
2021/10/19 07:42:50;;;;;;;2.58;0.95;;;;;;;8.43;52.94;99453.34;3360038;29;20459;-72
2021/10/19 07:44:31;;;;;;;2.55;0.80;;;;;;;8.48;52.93;99450.94;3359513;29;20109;-70
2021/10/19 07:46:13;;;;;;;1.63;0.90;;;;;;;8.46;52.84;99450.31;3361782;29;20135;-70
2021/10/19 07:47:58;;;;;;;2.40;0.80;;;;;;;8.51;52.88;99463.84;3360663;29;20045;-70
2021/10/19 07:49:38;;;;;;;3.72;1.17;;;;;;;8.55;52.74;99456.34;3362308;29;20092;-70
2021/10/19 07:51:19;;;;;;;1.40;1.20;;;;;;;8.61;52.64;99460.91;3362528;29;20045;-70
2021/10/19 07:53:00;;;;;;;2.97;0.85;;;;;;;8.60;52.55;99454.78;3360987;29;20493;-71
2021/10/19 07:54:41;;;;;;;1.23;0.98;;;;;;;8.61;52.33;99464.38;3362572;29;20406;-71
2021/10/19 07:56:21;;;;;;;1.95;1.08;;;;;;;8.63;52.44;99462.38;3360778;29;20045;-70
2021/10/19 07:58:02;;;;;;;1.58;1.27;;;;;;;8.64;52.20;99456.03;3362912;29;20076;-70
2021/10/19 07:59:43;;;;;;;4.30;0.93;;;;;;;8.68;51.98;99457.31;3362370;29;20123;-68
2021/10/19 08:01:23;;;;;;;1.13;0.80;;;;;;;8.68;51.70;99457.31;3356917;29;20041;-69